Kennedy Space Center, Florida
Current Conditions -  °F | °C
As of 4:58 PM on Monday 20 Oct 2014 (Local Time) from KTTS Reporting Station
Clear Clear  
Wind Chill: 82°   Ceiling: Unl
Heat Index: 84°   Visibility: 10mi
Dew Point: 68°   Wind: 7mph
Humidity: 63%   Direction: 60°ENE
Pressure: 29.96"   Gusts: NA
Location:  28.62°N, 80.68°W
Report Text: KTTS 202058Z AUTO 06006KT 10SM CLR 28/20 A2996 RMK AO2 SLP148 T02760199 57013 VISNO RWY33 CHINO RWY33 $
Loading
Personal Weather Stations






























Interactive Weather Map
Tropical Storm Tracking
New forecast layout! Learn more

10-Day Weather Forecast

Advertisements
Track Severe Weather on mobile